createdAt,value
2023-03-06T00:00:47.276Z,4.00
2023-03-06T00:03:14.002Z,3.05
2023-03-06T00:05:40.943Z,2.92
2023-03-06T00:08:08.740Z,3.05
2023-03-06T00:10:37.727Z,7.80
2023-03-06T00:13:07.268Z,2.45
2023-03-06T00:15:34.927Z,5.30
2023-03-06T00:18:04.751Z,2.47
2023-03-06T00:20:31.818Z,2.92
2023-03-06T00:22:58.621Z,3.05
2023-03-06T00:25:25.685Z,4.60
2023-03-06T00:27:52.458Z,3.42
2023-03-06T00:30:22.465Z,3.25
2023-03-06T00:32:49.530Z,4.15
2023-03-06T00:35:16.779Z,2.78
2023-03-06T00:37:43.744Z,3.88
2023-03-06T00:40:16.772Z,2.13
2023-03-06T00:42:43.588Z,2.00
2023-03-06T00:45:13.340Z,2.00
2023-03-06T00:47:43.286Z,2.55
2023-03-06T00:50:10.996Z,2.47
2023-03-06T00:52:37.675Z,2.05
2023-03-06T00:55:05.651Z,2.85
2023-03-06T00:57:32.312Z,2.10
2023-03-06T00:59:59.844Z,2.10
2023-03-06T01:02:27.288Z,2.05
2023-03-06T01:04:55.788Z,2.45
2023-03-06T01:07:23.460Z,2.35
2023-03-06T01:09:50.409Z,4.47
2023-03-06T01:12:17.420Z,2.60
2023-03-06T01:14:47.994Z,2.75
2023-03-06T01:17:16.132Z,4.63
2023-03-06T01:19:44.647Z,3.03
2023-03-06T01:22:11.356Z,5.07
2023-03-06T01:24:37.958Z,3.00
2023-03-06T01:27:04.775Z,3.78
2023-03-06T01:29:41.835Z,3.53
2023-03-06T01:32:08.650Z,4.15
2023-03-06T01:34:35.368Z,4.00
2023-03-06T01:37:06.219Z,3.50
2023-03-06T01:39:32.905Z,3.63
2023-03-06T01:41:59.509Z,5.65
2023-03-06T01:44:26.386Z,4.25
2023-03-06T01:46:52.967Z,3.92
2023-03-06T01:49:25.854Z,5.72
2023-03-06T01:52:22.792Z,4.82
2023-03-06T01:55:04.232Z,5.72
2023-03-06T01:57:34.540Z,4.55
2023-03-06T02:00:14.573Z,4.63
2023-03-06T02:02:50.465Z,4.70
2023-03-06T02:05:20.033Z,5.22
2023-03-06T02:07:47.286Z,5.25
2023-03-06T02:10:21.627Z,4.18
2023-03-06T02:12:49.893Z,4.75
2023-03-06T02:15:20.939Z,4.38
2023-03-06T02:17:48.720Z,4.68
2023-03-06T02:20:25.976Z,4.85
2023-03-06T02:22:57.721Z,5.50
2023-03-06T02:25:38.955Z,6.30
2023-03-06T02:28:08.375Z,3.40
2023-03-06T02:30:36.373Z,3.85
2023-03-06T02:33:08.765Z,5.05
2023-03-06T02:35:36.675Z,7.07
2023-03-06T02:38:08.931Z,4.25
2023-03-06T02:40:37.936Z,3.90
2023-03-06T02:43:06.014Z,5.57
2023-03-06T02:45:37.998Z,3.28
2023-03-06T02:48:06.149Z,2.80
2023-03-06T02:50:33.163Z,4.28
2023-03-06T02:53:07.474Z,3.83
2023-03-06T02:55:35.034Z,5.28
2023-03-06T02:58:02.777Z,3.47
2023-03-06T03:00:29.879Z,3.50
2023-03-06T03:02:58.841Z,4.63
2023-03-06T03:05:25.550Z,3.70
2023-03-06T03:07:52.204Z,2.80
2023-03-06T03:10:19.024Z,3.40
2023-03-06T03:12:46.169Z,2.67
2023-03-06T03:15:12.932Z,4.43
2023-03-06T03:17:41.247Z,3.42
2023-03-06T03:22:51.403Z,5.85
2023-03-06T03:25:18.417Z,3.53
2023-03-06T03:27:45.318Z,2.80
2023-03-06T03:30:12.494Z,3.65
2023-03-06T03:32:39.306Z,3.78
2023-03-06T03:35:07.759Z,5.35
2023-03-06T03:37:35.129Z,2.85
2023-03-06T03:40:02.921Z,5.40
2023-03-06T03:42:29.824Z,4.60
2023-03-06T03:44:56.474Z,2.60
2023-03-06T03:47:23.132Z,4.22
2023-03-06T03:49:49.830Z,5.03
2023-03-06T03:52:16.516Z,6.95
2023-03-06T03:54:49.046Z,3.05
2023-03-06T03:57:16.043Z,3.08
2023-03-06T03:59:45.887Z,3.05
2023-03-06T04:02:12.655Z,3.05
2023-03-06T04:04:39.369Z,5.35
2023-03-06T04:07:06.171Z,2.67
2023-03-06T04:09:35.686Z,5.82
2023-03-06T04:12:04.748Z,2.15
2023-03-06T04:14:32.984Z,1.95
2023-03-06T04:17:00.407Z,1.58
2023-03-06T04:19:28.663Z,1.40
2023-03-06T04:21:57.364Z,1.40
2023-03-06T04:24:24.694Z,2.22
2023-03-06T04:26:54.358Z,1.30
2023-03-06T04:29:23.623Z,2.15
2023-03-06T04:31:50.367Z,1.58
2023-03-06T04:34:20.343Z,1.20
2023-03-06T04:36:47.400Z,1.00
2023-03-06T04:39:15.714Z,1.40
2023-03-06T04:41:43.026Z,1.20
2023-03-06T04:44:10.703Z,1.33
2023-03-06T04:46:37.436Z,1.40
2023-03-06T04:49:04.356Z,2.13
2023-03-06T04:51:35.164Z,1.23
2023-03-06T04:54:02.416Z,1.10
2023-03-06T04:56:32.789Z,1.50
2023-03-06T04:59:00.513Z,1.80
2023-03-06T05:01:30.407Z,1.23
2023-03-06T05:03:57.299Z,1.40
2023-03-06T05:06:26.131Z,1.33
2023-03-06T05:08:52.876Z,1.48
2023-03-06T05:11:19.500Z,1.42
2023-03-06T05:13:46.213Z,1.58
2023-03-06T05:16:12.839Z,1.42
2023-03-06T05:18:39.725Z,1.88
2023-03-06T05:21:09.396Z,1.50
2023-03-06T05:23:38.726Z,1.65
2023-03-06T05:26:15.879Z,1.50
2023-03-06T05:28:42.614Z,1.05
2023-03-06T05:31:09.403Z,1.38
2023-03-06T05:33:36.527Z,1.13
2023-03-06T05:36:03.989Z,1.45
2023-03-06T05:38:30.768Z,1.35
2023-03-06T05:40:59.047Z,1.45
2023-03-06T05:43:25.743Z,1.30
2023-03-06T05:46:00.631Z,1.08
2023-03-06T05:48:27.473Z,1.45
2023-03-06T05:50:58.095Z,1.42
2023-03-06T05:53:26.027Z,1.20
2023-03-06T05:56:03.668Z,1.60
2023-03-06T05:58:31.580Z,2.03
2023-03-06T06:00:58.362Z,1.23
2023-03-06T06:03:25.349Z,1.80
2023-03-06T06:05:54.116Z,1.42
2023-03-06T06:08:21.049Z,1.60
2023-03-06T06:10:47.729Z,1.85
2023-03-06T06:13:18.504Z,2.85
2023-03-06T06:15:45.437Z,1.88
2023-03-06T06:18:14.562Z,1.67
2023-03-06T06:20:41.398Z,1.60
2023-03-06T06:23:08.173Z,1.75
2023-03-06T06:25:34.831Z,1.55
2023-03-06T06:28:01.619Z,1.50
2023-03-06T06:30:31.405Z,1.98
2023-03-06T06:32:58.357Z,1.50
2023-03-06T06:35:27.092Z,1.58
2023-03-06T06:37:53.845Z,1.23
2023-03-06T06:40:21.617Z,2.00
2023-03-06T06:42:53.375Z,1.60
2023-03-06T06:45:20.142Z,1.83
2023-03-06T06:47:49.631Z,1.30
2023-03-06T06:52:53.098Z,1.50
2023-03-06T06:55:19.781Z,1.73
2023-03-06T06:57:46.787Z,1.60
2023-03-06T07:00:14.941Z,1.10
2023-03-06T07:02:41.665Z,1.83
2023-03-06T07:05:08.841Z,1.80
2023-03-06T07:07:37.524Z,1.40
2023-03-06T07:10:05.995Z,1.80
2023-03-06T07:12:35.357Z,1.77
2023-03-06T07:15:04.143Z,2.95
2023-03-06T07:17:30.907Z,1.40
2023-03-06T07:19:57.834Z,1.85
2023-03-06T07:22:24.622Z,1.92
2023-03-06T07:24:52.818Z,2.05
2023-03-06T07:27:20.261Z,1.50
2023-03-06T07:29:49.064Z,1.70
2023-03-06T07:32:16.375Z,1.70
2023-03-06T07:34:45.077Z,1.50
2023-03-06T07:37:15.012Z,1.75
2023-03-06T07:39:44.582Z,1.60
2023-03-06T07:42:14.311Z,2.10
2023-03-06T07:44:42.268Z,2.08
2023-03-06T07:47:15.034Z,3.42
2023-03-06T07:49:41.724Z,1.90
2023-03-06T07:52:09.524Z,1.90
2023-03-06T07:54:36.332Z,1.90
2023-03-06T07:57:11.069Z,1.90
2023-03-06T07:59:39.316Z,1.88
2023-03-06T08:02:06.173Z,1.90
2023-03-06T08:04:32.773Z,1.80
2023-03-06T08:07:01.921Z,1.90
2023-03-06T08:09:31.318Z,1.42
2023-03-06T08:11:58.113Z,6.80
2023-03-06T08:14:24.898Z,2.05
2023-03-06T08:16:52.054Z,1.30
2023-03-06T08:19:18.633Z,1.40
2023-03-06T08:21:45.453Z,1.38
2023-03-06T08:24:13.360Z,1.63
2023-03-06T08:26:41.504Z,2.42
2023-03-06T08:29:12.990Z,1.75
2023-03-06T08:31:44.370Z,1.38
2023-03-06T08:34:19.165Z,1.00
2023-03-06T08:36:45.967Z,1.70
2023-03-06T08:39:14.243Z,2.85
2023-03-06T08:41:42.347Z,1.13
2023-03-06T08:44:12.274Z,3.33
2023-03-06T08:46:39.032Z,1.23
2023-03-06T08:49:05.773Z,1.10
2023-03-06T08:51:32.615Z,1.20
2023-03-06T08:53:59.689Z,1.90
2023-03-06T08:56:30.506Z,2.60
2023-03-06T08:58:58.545Z,1.40
2023-03-06T09:01:28.039Z,1.83
2023-03-06T09:03:57.147Z,2.88
2023-03-06T09:06:24.446Z,2.85
2023-03-06T09:08:52.243Z,1.45
2023-03-06T09:11:21.956Z,2.97
2023-03-06T09:13:51.270Z,1.60
2023-03-06T09:16:18.173Z,2.50
2023-03-06T09:18:46.403Z,1.50
2023-03-06T09:21:13.264Z,1.83
2023-03-06T09:23:40.105Z,2.97
2023-03-06T09:26:07.448Z,2.80
2023-03-06T09:28:39.277Z,1.45
2023-03-06T09:33:49.375Z,3.83
2023-03-06T09:36:21.164Z,1.20
2023-03-06T09:38:50.090Z,0.90
2023-03-06T09:41:31.763Z,1.95
2023-03-06T09:44:05.170Z,1.15
2023-03-06T09:47:02.410Z,2.20
2023-03-06T09:50:10.588Z,1.50
2023-03-06T09:52:47.711Z,1.05
2023-03-06T09:55:25.567Z,1.30
2023-03-06T09:58:09.612Z,1.20
2023-03-06T10:00:42.075Z,1.73
2023-03-06T10:03:28.488Z,1.30
2023-03-06T10:06:18.880Z,1.00
2023-03-06T10:09:05.218Z,1.30
2023-03-06T10:11:37.052Z,4.78
2023-03-06T10:14:19.093Z,1.27
2023-03-06T10:16:45.848Z,0.98
2023-03-06T10:19:16.143Z,1.65
2023-03-06T10:21:56.727Z,0.90
2023-03-06T10:24:54.883Z,1.38
2023-03-06T10:27:26.367Z,0.80
2023-03-06T10:30:03.849Z,1.30
2023-03-06T10:32:52.172Z,1.98
2023-03-06T10:35:22.226Z,1.63
2023-03-06T10:37:49.663Z,2.47
2023-03-06T10:40:22.985Z,2.88
2023-03-06T10:42:58.624Z,2.72
2023-03-06T10:45:47.301Z,3.60
2023-03-06T10:48:20.446Z,4.60
2023-03-06T10:50:50.318Z,2.38
2023-03-06T10:53:26.039Z,1.30
2023-03-06T10:56:03.244Z,1.35
2023-03-06T10:58:33.208Z,2.28
2023-03-06T11:01:20.112Z,1.52
2023-03-06T11:03:48.058Z,5.32
2023-03-06T11:06:35.385Z,1.08
2023-03-06T11:09:22.911Z,1.25
2023-03-06T11:11:53.114Z,1.65
2023-03-06T11:14:27.158Z,2.35
2023-03-06T11:16:55.251Z,1.67
2023-03-06T11:19:24.249Z,7.78
2023-03-06T11:22:05.764Z,1.30
2023-03-06T11:24:41.820Z,2.67
2023-03-06T11:27:35.114Z,2.75
2023-03-06T11:30:08.226Z,3.63
2023-03-06T11:32:56.578Z,1.20
2023-03-06T11:35:52.476Z,1.25
2023-03-06T11:38:28.658Z,1.65
2023-03-06T11:40:59.117Z,0.88
2023-03-06T11:43:32.750Z,1.95
2023-03-06T11:46:00.540Z,1.30
2023-03-06T11:48:33.577Z,1.13
2023-03-06T11:51:07.897Z,3.97
2023-03-06T11:53:37.106Z,2.30
2023-03-06T11:56:19.261Z,1.98
2023-03-06T11:59:23.816Z,2.35
2023-03-06T12:02:21.924Z,2.58
2023-03-06T12:05:00.131Z,1.23
2023-03-06T12:07:58.366Z,2.40
2023-03-06T12:10:51.986Z,0.70
2023-03-06T12:13:31.307Z,0.80
2023-03-06T12:16:36.609Z,1.38
2023-03-06T12:19:05.762Z,1.58
2023-03-06T12:21:51.326Z,2.40
2023-03-06T12:24:37.346Z,0.80
2023-03-06T12:27:32.280Z,2.25
2023-03-06T12:30:27.198Z,0.82
2023-03-06T12:33:23.919Z,1.02
2023-03-06T12:36:11.671Z,3.50
2023-03-06T12:38:56.958Z,2.38
2023-03-06T12:41:58.099Z,1.33
2023-03-06T12:44:43.487Z,1.58
2023-03-06T12:47:15.196Z,1.65
2023-03-06T12:49:46.381Z,2.80
2023-03-06T12:52:29.585Z,2.00
2023-03-06T12:55:00.216Z,2.83
2023-03-06T12:57:27.108Z,2.22
2023-03-06T12:59:54.313Z,1.10
2023-03-06T13:02:58.537Z,2.60
2023-03-06T13:05:50.119Z,1.20
2023-03-06T13:09:00.990Z,2.65
2023-03-06T13:11:31.425Z,1.20
2023-03-06T13:13:58.055Z,1.05
2023-03-06T13:16:29.729Z,0.88
2023-03-06T13:19:02.678Z,2.58
2023-03-06T13:21:41.750Z,1.42
2023-03-06T13:24:31.097Z,0.73
2023-03-06T13:27:04.975Z,3.38
2023-03-06T13:29:37.632Z,2.97
2023-03-06T13:32:04.310Z,1.92
2023-03-06T13:34:51.915Z,2.22
2023-03-06T13:37:23.252Z,3.47
2023-03-06T13:39:52.555Z,2.85
2023-03-06T13:42:29.861Z,1.38
2023-03-06T13:45:00.049Z,3.25
2023-03-06T13:47:55.768Z,2.80
2023-03-06T13:50:31.939Z,1.00
2023-03-06T13:53:12.594Z,1.90
2023-03-06T13:55:48.937Z,2.05
2023-03-06T13:58:29.163Z,2.92
2023-03-06T14:01:27.041Z,1.23
2023-03-06T14:04:13.764Z,3.50
2023-03-06T14:06:47.463Z,0.98
2023-03-06T14:09:26.707Z,3.10
2023-03-06T14:12:11.749Z,2.72
2023-03-06T14:14:42.711Z,2.83
2023-03-06T14:17:20.418Z,1.48
2023-03-06T14:19:47.534Z,3.95
2023-03-06T14:22:18.370Z,1.15
2023-03-06T14:24:57.111Z,2.65
2023-03-06T14:27:48.155Z,3.35
2023-03-06T14:30:26.052Z,4.03
2023-03-06T14:32:57.678Z,1.15
2023-03-06T14:35:35.448Z,1.83
2023-03-06T14:38:05.181Z,1.02
2023-03-06T14:40:35.191Z,0.82
2023-03-06T14:43:27.211Z,4.43
2023-03-06T14:45:57.742Z,2.15
2023-03-06T14:48:27.272Z,1.58
2023-03-06T14:50:56.140Z,4.18
2023-03-06T14:53:33.410Z,3.30
2023-03-06T14:56:06.736Z,1.67
2023-03-06T14:58:40.656Z,2.20
2023-03-06T15:01:10.260Z,1.58
2023-03-06T15:03:49.853Z,1.35
2023-03-06T15:06:31.156Z,2.72
2023-03-06T15:09:07.947Z,1.13
2023-03-06T15:11:55.951Z,1.25
2023-03-06T15:14:33.416Z,2.28
2023-03-06T15:17:20.254Z,1.52
2023-03-06T15:19:52.168Z,1.10
2023-03-06T15:22:27.196Z,1.00
2023-03-06T15:24:54.674Z,1.65
2023-03-06T15:27:29.716Z,1.33
2023-03-06T15:30:26.239Z,4.13
2023-03-06T15:33:10.330Z,1.15
2023-03-06T15:35:40.076Z,3.58
2023-03-06T15:38:34.298Z,1.63
2023-03-06T15:41:04.626Z,2.08
2023-03-06T15:43:42.522Z,3.08
2023-03-06T15:46:09.987Z,1.13
2023-03-06T15:48:36.676Z,3.58
2023-03-06T15:51:04.131Z,1.45
2023-03-06T15:53:32.827Z,1.50
2023-03-06T15:56:02.842Z,2.50
2023-03-06T15:58:33.727Z,1.35
2023-03-06T16:01:02.695Z,1.58
2023-03-06T16:03:38.160Z,1.05
2023-03-06T16:06:06.688Z,5.90
2023-03-06T16:08:33.344Z,3.13
2023-03-06T16:11:02.516Z,2.92
2023-03-06T16:13:29.633Z,2.15
2023-03-06T16:15:56.477Z,1.63
2023-03-06T16:18:23.220Z,2.00
2023-03-06T16:20:50.072Z,2.33
2023-03-06T16:23:21.755Z,2.60
2023-03-06T16:25:49.524Z,4.15
2023-03-06T16:28:17.690Z,3.72
2023-03-06T16:30:44.799Z,2.05
2023-03-06T16:33:12.789Z,2.58
2023-03-06T16:35:40.009Z,6.10
2023-03-06T16:38:07.155Z,5.97
2023-03-06T16:40:39.470Z,1.83
2023-03-06T16:43:09.261Z,3.60
2023-03-06T16:45:40.323Z,1.27
2023-03-06T16:48:07.689Z,2.75
2023-03-06T16:50:38.549Z,8.60
2023-03-06T16:53:05.950Z,6.53
2023-03-06T16:55:32.810Z,4.40
2023-03-06T16:58:00.587Z,9.23
2023-03-06T17:00:31.205Z,3.42
2023-03-06T17:02:58.245Z,2.00
2023-03-06T17:05:27.186Z,3.97
2023-03-06T17:07:53.781Z,3.42
2023-03-06T17:10:22.859Z,3.08
2023-03-06T17:12:50.248Z,4.88
2023-03-06T17:15:17.147Z,2.30
2023-03-06T17:17:43.868Z,3.17
2023-03-06T17:20:15.610Z,3.15
2023-03-06T17:22:43.481Z,3.00
2023-03-06T17:25:10.912Z,5.93
2023-03-06T17:27:40.007Z,3.42
2023-03-06T17:30:07.389Z,5.38
2023-03-06T17:32:34.337Z,8.38
2023-03-06T17:35:02.052Z,2.50
2023-03-06T17:37:28.914Z,5.18
2023-03-06T17:39:55.549Z,4.65
2023-03-06T17:42:22.236Z,3.60
2023-03-06T17:44:48.908Z,4.32
2023-03-06T17:47:15.580Z,5.55
2023-03-06T17:49:42.406Z,4.07
2023-03-06T17:52:09.991Z,3.83
2023-03-06T17:54:36.678Z,7.25
2023-03-06T17:57:08.599Z,6.10
2023-03-06T17:59:35.342Z,6.78
2023-03-06T18:02:06.668Z,6.35
2023-03-06T18:04:33.517Z,2.45
2023-03-06T18:07:00.364Z,1.30
2023-03-06T18:09:27.087Z,5.03
2023-03-06T18:11:53.820Z,3.15
2023-03-06T18:14:23.317Z,4.85
2023-03-06T18:16:50.180Z,8.40
2023-03-06T18:19:17.987Z,4.90
2023-03-06T18:21:44.707Z,7.07
2023-03-06T18:24:13.162Z,6.97
2023-03-06T18:26:42.482Z,5.40
2023-03-06T18:29:09.380Z,3.85
2023-03-06T18:31:42.480Z,7.30
2023-03-06T18:34:13.869Z,4.80
2023-03-06T18:36:43.421Z,6.97
2023-03-06T18:39:14.313Z,4.70
2023-03-06T18:41:41.527Z,3.22
2023-03-06T18:44:08.370Z,3.22
2023-03-06T18:46:37.508Z,9.52
2023-03-06T18:49:14.728Z,5.47
2023-03-06T18:51:41.699Z,8.48
2023-03-06T18:54:09.766Z,9.77
2023-03-06T18:56:38.087Z,5.57
2023-03-06T18:59:05.854Z,7.13
2023-03-06T19:01:33.315Z,6.72
2023-03-06T19:04:05.627Z,9.52
2023-03-06T19:06:32.382Z,8.25
2023-03-06T19:08:59.176Z,5.38
2023-03-06T19:11:30.186Z,8.45
2023-03-06T19:13:57.077Z,6.82
2023-03-06T19:16:26.760Z,10.95
2023-03-06T19:18:55.686Z,10.63
2023-03-06T19:21:24.103Z,10.40
2023-03-06T19:23:50.865Z,6.30
2023-03-06T19:26:21.168Z,9.77
2023-03-06T19:28:52.466Z,8.70
2023-03-06T19:31:25.312Z,9.18
2023-03-06T19:33:53.401Z,8.05
2023-03-06T19:36:23.780Z,9.68
2023-03-06T19:38:54.271Z,8.48
2023-03-06T19:41:20.924Z,8.38
2023-03-06T19:43:52.221Z,7.75
2023-03-06T19:46:24.453Z,9.38
2023-03-06T19:48:58.517Z,7.20
2023-03-06T19:51:28.591Z,6.65
2023-03-06T19:53:57.079Z,11.40
2023-03-06T19:56:34.795Z,6.57
2023-03-06T19:59:01.495Z,6.18
2023-03-06T20:01:28.759Z,8.38
2023-03-06T20:03:59.550Z,9.65
2023-03-06T20:06:28.311Z,7.57
2023-03-06T20:08:59.876Z,6.97
2023-03-06T20:11:31.678Z,6.25
2023-03-06T20:13:59.750Z,11.85
2023-03-06T20:16:28.118Z,12.82
2023-03-06T20:18:58.169Z,6.07
2023-03-06T20:21:25.970Z,7.80
2023-03-06T20:23:58.088Z,9.68
2023-03-06T20:26:27.309Z,11.23
2023-03-06T20:28:55.091Z,7.25
2023-03-06T20:31:25.062Z,6.93
2023-03-06T20:33:53.031Z,6.50
2023-03-06T20:36:27.855Z,8.00
2023-03-06T20:38:55.491Z,6.07
2023-03-06T20:41:27.116Z,11.93
2023-03-06T20:43:54.367Z,7.78
2023-03-06T20:46:26.584Z,8.93
2023-03-06T20:48:54.272Z,8.38
2023-03-06T20:51:23.630Z,12.02
2023-03-06T20:53:51.706Z,9.07
2023-03-06T20:56:21.155Z,7.35
2023-03-06T20:58:53.087Z,6.15
2023-03-06T21:01:26.939Z,8.32
2023-03-06T21:03:54.487Z,11.25
2023-03-06T21:06:21.342Z,9.68
2023-03-06T21:08:48.145Z,6.35
2023-03-06T21:11:16.648Z,6.68
2023-03-06T21:13:43.480Z,8.98
2023-03-06T21:16:12.844Z,7.93
2023-03-06T21:18:42.551Z,6.28
2023-03-06T21:21:14.766Z,8.98
2023-03-06T21:23:43.674Z,6.97
2023-03-06T21:26:24.675Z,7.13
2023-03-06T21:28:52.526Z,7.63
2023-03-06T21:31:21.314Z,6.70
2023-03-06T21:33:51.675Z,8.05
2023-03-06T21:36:20.596Z,7.70
2023-03-06T21:38:48.649Z,7.88
2023-03-06T21:41:17.375Z,7.30
2023-03-06T21:43:47.072Z,7.25
2023-03-06T21:46:13.987Z,7.68
2023-03-06T21:48:40.748Z,7.43
2023-03-06T21:51:24.492Z,6.93
2023-03-06T21:53:52.158Z,6.97
2023-03-06T21:56:20.633Z,6.20
2023-03-06T21:58:47.397Z,7.35
2023-03-06T22:01:17.913Z,6.55
2023-03-06T22:03:47.599Z,9.38
2023-03-06T22:06:19.410Z,6.88
2023-03-06T22:08:46.118Z,6.10
2023-03-06T22:11:18.391Z,6.10
2023-03-06T22:13:45.811Z,5.30
2023-03-06T22:16:13.148Z,7.53
2023-03-06T22:18:40.017Z,5.95
2023-03-06T22:21:08.336Z,8.00
2023-03-06T22:23:35.063Z,5.90
2023-03-06T22:26:07.637Z,5.25
2023-03-06T22:28:34.440Z,6.25
2023-03-06T22:31:09.121Z,6.43
2023-03-06T22:33:36.210Z,4.70
2023-03-06T22:36:06.434Z,6.95
2023-03-06T22:38:40.160Z,4.82
2023-03-06T22:41:07.985Z,5.47
2023-03-06T22:43:34.905Z,5.40
2023-03-06T22:46:16.066Z,5.97
2023-03-06T22:48:50.789Z,5.32
2023-03-06T22:51:20.634Z,4.68
2023-03-06T22:53:48.042Z,5.03
2023-03-06T22:56:17.480Z,5.05
2023-03-06T22:58:46.008Z,4.13
2023-03-06T23:01:15.487Z,4.43
2023-03-06T23:03:50.270Z,4.55
2023-03-06T23:06:22.434Z,4.43
2023-03-06T23:08:51.417Z,4.97
2023-03-06T23:11:19.655Z,4.15
2023-03-06T23:13:49.510Z,3.63
2023-03-06T23:16:16.163Z,4.47
2023-03-06T23:18:42.971Z,5.07
2023-03-06T23:21:20.939Z,3.33
2023-03-06T23:23:49.429Z,4.20
2023-03-06T23:26:16.874Z,4.20
2023-03-06T23:28:43.590Z,6.85
2023-03-06T23:31:13.591Z,6.30
2023-03-06T23:33:40.481Z,5.45
2023-03-06T23:38:47.994Z,5.10
2023-03-06T23:41:17.218Z,5.05
2023-03-06T23:43:44.374Z,4.50
2023-03-06T23:46:11.173Z,5.88
2023-03-06T23:48:39.185Z,5.28
2023-03-06T23:51:12.209Z,9.75
2023-03-06T23:53:38.797Z,8.48
2023-03-06T23:56:06.726Z,4.75
2023-03-06T23:58:35.265Z,5.60
